Impacts METAR Board
IDs:

KACT - Waco Rgnl, TX, US

Updated at: 1500 UTC 25 Jan 2020
Potential Impact None Slight Moderate High
Time 25/03Z 25/04Z 25/05Z 25/06Z 25/07Z 25/08Z 25/09Z 25/10Z 25/11Z 25/12Z 25/13Z 25/14Z 25/15Z
Temp46 47 45 40 41 37 37 35 38 38 37 38 47
Dewpt33 35 35 35 35 33 33 33 33 34 34 34 38
Altim30.12 30.12 30.13 30.12 30.12 30.12 30.12 30.11 30.10 30.11 30.13 30.13 30.13
VIS10 10 10 10 10 10 10 10 10 10 10 10 10
CIG-- -- -- -- -- -- -- -- -- -- -- -- --
CoverCLRCLRCLRCLRCLRCLRCLRCLRCLRCLRCLRCLRCLR
FltCatVFRVFRVFRVFRVFRVFRVFRVFRVFRVFRVFRVFRVFR
WX--------------------------
WDir13016015019000000000150
WSpd3 6 5 4 0 0 0 0 0 0 0 0 7
WGst-- -- -- -- -- -- -- -- -- -- -- -- --
Raw hourly METARs
KACT 250251Z 13003KT 10SM CLR 08/01 A3012 RMK AO2 SLP198 T00780006 51010
KACT 250351Z 16006KT 10SM CLR 08/02 A3012 RMK AO2 SLP199 T00830017
KACT 250451Z 15005KT 10SM CLR 07/02 A3013 RMK AO2 SLP200 T00720017
KACT 250551Z 19004KT 10SM CLR 04/02 A3012 RMK AO2 SLP200 T00440017 10128 20044 401891011 50002
KACT 250651Z AUTO 00000KT 10SM CLR 05/02 A3012 RMK AO2 SLP198 T00500017
KACT 250751Z AUTO 00000KT 10SM CLR 03/01 A3012 RMK AO2 SLP198 T00280006
KACT 250851Z AUTO 00000KT 10SM CLR 03/01 A3012 RMK AO2 SLP197 T00280006 56002
KACT 250951Z AUTO 00000KT 10SM CLR 02/01 A3011 RMK AO2 SLP194 T00170006
KACT 251051Z AUTO 00000KT 10SM CLR 03/01 A3010 RMK AO2 SLP190 T00330006
KACT 251151Z AUTO 00000KT 10SM CLR 03/01 A3011 RMK AO2 SLP195 T00330011 10061 20017 55004
KACT 251251Z 00000KT 10SM CLR 03/01 A3013 RMK AO2 SLP202 T00280011
KACT 251351Z 00000KT 10SM CLR 03/01 A3013 RMK AO2 SLP203 T00330011
KACT 251451Z 15007KT 10SM CLR 08/03 A3013 RMK AO2 SLP201 T00830033 50006



Page loaded:  15:40 UTC  |   07:40 AM Pacific  |   08:40 AM Mountain  |   09:40 AM Central  |   10:40 AM Eastern

 

ADVISORIES

FORECASTS

FORECASTS

OBSERVATIONS

USER TOOLS

ABOUT US